<?xml version="1.0" encoding="UTF-8" standalone="no" ?>
<gpx xmlns="http://www.topografix.com/GPX/1/1" xmlns:xsi="http://www.w3.org/2001/XMLSchema-instance" xsi:schemaLocation="http://www.topografix.com/GPX/1/1 http://www.topografix.com/GPX/1/1/gpx.xsd" version="1.1" creator="VisuGPX - https://www.visugpx.com">
  <metadata>
    <name>Dondas - Sabré - 14 août 2017</name>
    <desc><![CDATA[Dondas - Sabré - 14 août 2017 ----------]]></desc>
  </metadata>
  <trk>
    <name><![CDATA[2017-08-14T08:44:42Z]]></name>
    <trkseg>
      <trkpt lat="44.21998" lon="0.8455">
        <ele>171.7</ele>
        <time>2017-08-14T08:44:55Z</time>
      </trkpt>
      <trkpt lat="44.21996" lon="0.84558">
        <ele>172.041</ele>
        <time>2017-08-14T08:45:01Z</time>
      </trkpt>
      <trkpt lat="44.21993" lon="0.84559">
        <ele>172.291</ele>
        <time>2017-08-14T08:45:03Z</time>
      </trkpt>
      <trkpt lat="44.21985" lon="0.84556">
        <ele>172.321</ele>
        <time>2017-08-14T08:45:11Z</time>
      </trkpt>
      <trkpt lat="44.21978" lon="0.84553">
        <ele>172.15</ele>
        <time>2017-08-14T08:45:19Z</time>
      </trkpt>
      <trkpt lat="44.21968" lon="0.84558">
        <ele>170.97</ele>
        <time>2017-08-14T08:45:27Z</time>
      </trkpt>
      <trkpt lat="44.21957" lon="0.84567">
        <ele>169.96</ele>
        <time>2017-08-14T08:45:33Z</time>
      </trkpt>
      <trkpt lat="44.21952" lon="0.84569">
        <ele>169.51</ele>
        <time>2017-08-14T08:45:38Z</time>
      </trkpt>
      <trkpt lat="44.2195" lon="0.84572">
        <ele>169.38</ele>
        <time>2017-08-14T08:45:43Z</time>
      </trkpt>
      <trkpt lat="44.2194" lon="0.84581">
        <ele>169.421</ele>
        <time>2017-08-14T08:45:51Z</time>
      </trkpt>
      <trkpt lat="44.21922" lon="0.846">
        <ele>170.391</ele>
        <time>2017-08-14T08:46:01Z</time>
      </trkpt>
      <trkpt lat="44.21904" lon="0.84624">
        <ele>169.99</ele>
        <time>2017-08-14T08:46:12Z</time>
      </trkpt>
      <trkpt lat="44.21886" lon="0.84648">
        <ele>169.9</ele>
        <time>2017-08-14T08:46:23Z</time>
      </trkpt>
      <trkpt lat="44.21869" lon="0.8467">
        <ele>169.34</ele>
        <time>2017-08-14T08:46:33Z</time>
      </trkpt>
      <trkpt lat="44.21851" lon="0.84692">
        <ele>170.076</ele>
        <time>2017-08-14T08:46:44Z</time>
      </trkpt>
      <trkpt lat="44.21841" lon="0.84698">
        <ele>171.431</ele>
        <time>2017-08-14T08:46:51Z</time>
      </trkpt>
      <trkpt lat="44.21838" lon="0.84693">
        <ele>171.81</ele>
        <time>2017-08-14T08:46:58Z</time>
      </trkpt>
      <trkpt lat="44.21832" lon="0.84681">
        <ele>172.021</ele>
        <time>2017-08-14T08:47:05Z</time>
      </trkpt>
      <trkpt lat="44.21817" lon="0.84656">
        <ele>173.081</ele>
        <time>2017-08-14T08:47:16Z</time>
      </trkpt>
      <trkpt lat="44.21806" lon="0.8464">
        <ele>174.48</ele>
        <time>2017-08-14T08:47:26Z</time>
      </trkpt>
      <trkpt lat="44.21797" lon="0.8463">
        <ele>175.771</ele>
        <time>2017-08-14T08:47:34Z</time>
      </trkpt>
      <trkpt lat="44.21787" lon="0.8462">
        <ele>177.06</ele>
        <time>2017-08-14T08:47:43Z</time>
      </trkpt>
      <trkpt lat="44.2178" lon="0.84611">
        <ele>178.12</ele>
        <time>2017-08-14T08:47:50Z</time>
      </trkpt>
      <trkpt lat="44.21778" lon="0.84609">
        <ele>178.4</ele>
        <time>2017-08-14T08:47:52Z</time>
      </trkpt>
      <trkpt lat="44.21766" lon="0.84594">
        <ele>179.91</ele>
        <time>2017-08-14T08:48:04Z</time>
      </trkpt>
      <trkpt lat="44.21754" lon="0.8458">
        <ele>180.99</ele>
        <time>2017-08-14T08:48:16Z</time>
      </trkpt>
      <trkpt lat="44.21746" lon="0.8457">
        <ele>181.96</ele>
        <time>2017-08-14T08:48:24Z</time>
      </trkpt>
      <trkpt lat="44.21734" lon="0.84554">
        <ele>183.99</ele>
        <time>2017-08-14T08:48:35Z</time>
      </trkpt>
      <trkpt lat="44.21722" lon="0.8454">
        <ele>185.399</ele>
        <time>2017-08-14T08:48:45Z</time>
      </trkpt>
      <trkpt lat="44.2171" lon="0.84526">
        <ele>186.77</ele>
        <time>2017-08-14T08:48:53Z</time>
      </trkpt>
      <trkpt lat="44.21695" lon="0.84505">
        <ele>188.009</ele>
        <time>2017-08-14T08:49:02Z</time>
      </trkpt>
      <trkpt lat="44.21684" lon="0.84484">
        <ele>190.59</ele>
        <time>2017-08-14T08:49:12Z</time>
      </trkpt>
      <trkpt lat="44.21679" lon="0.84475">
        <ele>191.989</ele>
        <time>2017-08-14T08:49:17Z</time>
      </trkpt>
      <trkpt lat="44.21676" lon="0.84465">
        <ele>191.338</ele>
        <time>2017-08-14T08:49:23Z</time>
      </trkpt>
      <trkpt lat="44.21674" lon="0.84462">
        <ele>191.228</ele>
        <time>2017-08-14T08:49:25Z</time>
      </trkpt>
      <trkpt lat="44.21671" lon="0.84454">
        <ele>191.979</ele>
        <time>2017-08-14T08:49:31Z</time>
      </trkpt>
      <trkpt lat="44.21666" lon="0.84445">
        <ele>192.96</ele>
        <time>2017-08-14T08:49:37Z</time>
      </trkpt>
      <trkpt lat="44.21661" lon="0.84452">
        <ele>193.39</ele>
        <time>2017-08-14T08:49:41Z</time>
      </trkpt>
      <trkpt lat="44.21658" lon="0.84471">
        <ele>195.66</ele>
        <time>2017-08-14T08:49:49Z</time>
      </trkpt>
      <trkpt lat="44.21657" lon="0.84484">
        <ele>196.529</ele>
        <time>2017-08-14T08:49:55Z</time>
      </trkpt>
      <trkpt lat="44.21654" lon="0.84508">
        <ele>197.109</ele>
        <time>2017-08-14T08:50:05Z</time>
      </trkpt>
      <trkpt lat="44.21651" lon="0.8453">
        <ele>197.678</ele>
        <time>2017-08-14T08:50:15Z</time>
      </trkpt>
      <trkpt lat="44.2165" lon="0.84551">
        <ele>198.508</ele>
        <time>2017-08-14T08:50:24Z</time>
      </trkpt>
      <trkpt lat="44.21652" lon="0.84568">
        <ele>198.168</ele>
        <time>2017-08-14T08:50:31Z</time>
      </trkpt>
      <trkpt lat="44.21652" lon="0.84588">
        <ele>197.357</ele>
        <time>2017-08-14T08:50:38Z</time>
      </trkpt>
      <trkpt lat="44.21649" lon="0.84607">
        <ele>197.018</ele>
        <time>2017-08-14T08:50:45Z</time>
      </trkpt>
      <trkpt lat="44.21644" lon="0.84627">
        <ele>196.859</ele>
        <time>2017-08-14T08:50:52Z</time>
      </trkpt>
      <trkpt lat="44.21639" lon="0.84651">
        <ele>200.24</ele>
        <time>2017-08-14T08:51:00Z</time>
      </trkpt>
      <trkpt lat="44.21636" lon="0.8467">
        <ele>203.08</ele>
        <time>2017-08-14T08:51:06Z</time>
      </trkpt>
      <trkpt lat="44.21635" lon="0.84677">
        <ele>203.028</ele>
        <time>2017-08-14T08:51:09Z</time>
      </trkpt>
      <trkpt lat="44.21635" lon="0.84685">
        <ele>204.409</ele>
        <time>2017-08-14T08:51:15Z</time>
      </trkpt>
      <trkpt lat="44.21634" lon="0.84688">
        <ele>204.699</ele>
        <time>2017-08-14T08:51:18Z</time>
      </trkpt>
      <trkpt lat="44.21632" lon="0.84689">
        <ele>204.989</ele>
        <time>2017-08-14T08:51:21Z</time>
      </trkpt>
      <trkpt lat="44.21623" lon="0.84682">
        <ele>207.141</ele>
        <time>2017-08-14T08:51:28Z</time>
      </trkpt>
      <trkpt lat="44.21615" lon="0.84674">
        <ele>209.542</ele>
        <time>2017-08-14T08:51:34Z</time>
      </trkpt>
      <trkpt lat="44.21609" lon="0.84667">
        <ele>209.93</ele>
        <time>2017-08-14T08:51:39Z</time>
      </trkpt>
      <trkpt lat="44.21603" lon="0.84661">
        <ele>209.901</ele>
        <time>2017-08-14T08:51:43Z</time>
      </trkpt>
      <trkpt lat="44.21589" lon="0.84649">
        <ele>211.681</ele>
        <time>2017-08-14T08:51:49Z</time>
      </trkpt>
      <trkpt lat="44.21579" lon="0.84643">
        <ele>211.29</ele>
        <time>2017-08-14T08:51:54Z</time>
      </trkpt>
      <trkpt lat="44.21572" lon="0.84641">
        <ele>210.56</ele>
        <time>2017-08-14T08:51:59Z</time>
      </trkpt>
      <trkpt lat="44.2157" lon="0.8464">
        <ele>210.14</ele>
        <time>2017-08-14T08:52:05Z</time>
      </trkpt>
      <trkpt lat="44.21565" lon="0.84639">
        <ele>209.628</ele>
        <time>2017-08-14T08:52:10Z</time>
      </trkpt>
      <trkpt lat="44.21556" lon="0.84638">
        <ele>209.219</ele>
        <time>2017-08-14T08:52:16Z</time>
      </trkpt>
      <trkpt lat="44.21553" lon="0.84637">
        <ele>208.238</ele>
        <time>2017-08-14T08:52:23Z</time>
      </trkpt>
      <trkpt lat="44.21544" lon="0.8463">
        <ele>200.509</ele>
        <time>2017-08-14T08:53:15Z</time>
      </trkpt>
      <trkpt lat="44.21536" lon="0.84628">
        <ele>204.699</ele>
        <time>2017-08-14T08:53:31Z</time>
      </trkpt>
      <trkpt lat="44.21535" lon="0.84627">
        <ele>204.92</ele>
        <time>2017-08-14T08:53:33Z</time>
      </trkpt>
      <trkpt lat="44.21528" lon="0.84622">
        <ele>205.391</ele>
        <time>2017-08-14T08:53:40Z</time>
      </trkpt>
      <trkpt lat="44.21521" lon="0.84618">
        <ele>205.739</ele>
        <time>2017-08-14T08:53:46Z</time>
      </trkpt>
      <trkpt lat="44.21516" lon="0.84616">
        <ele>204.488</ele>
        <time>2017-08-14T08:53:53Z</time>
      </trkpt>
      <trkpt lat="44.21514" lon="0.84619">
        <ele>213.228</ele>
        <time>2017-08-14T08:55:00Z</time>
      </trkpt>
      <trkpt lat="44.21517" lon="0.84619">
        <ele>215.019</ele>
        <time>2017-08-14T08:55:08Z</time>
      </trkpt>
      <trkpt lat="44.2152" lon="0.84619">
        <ele>215.119</ele>
        <time>2017-08-14T08:55:15Z</time>
      </trkpt>
      <trkpt lat="44.21524" lon="0.8462">
        <ele>214.959</ele>
        <time>2017-08-14T08:55:21Z</time>
      </trkpt>
      <trkpt lat="44.21527" lon="0.84621">
        <ele>215.089</ele>
        <time>2017-08-14T08:55:27Z</time>
      </trkpt>
      <trkpt lat="44.2153" lon="0.84624">
        <ele>213.878</ele>
        <time>2017-08-14T08:55:33Z</time>
      </trkpt>
      <trkpt lat="44.21536" lon="0.84626">
        <ele>213.359</ele>
        <time>2017-08-14T08:55:40Z</time>
      </trkpt>
      <trkpt lat="44.21542" lon="0.84629">
        <ele>214.719</ele>
        <time>2017-08-14T08:55:48Z</time>
      </trkpt>
      <trkpt lat="44.21544" lon="0.8463">
        <ele>213.919</ele>
        <time>2017-08-14T08:55:57Z</time>
      </trkpt>
      <trkpt lat="44.21547" lon="0.84631">
        <ele>213.949</ele>
        <time>2017-08-14T08:56:03Z</time>
      </trkpt>
      <trkpt lat="44.21552" lon="0.84632">
        <ele>213.579</ele>
        <time>2017-08-14T08:56:08Z</time>
      </trkpt>
      <trkpt lat="44.21562" lon="0.84635">
        <ele>213.348</ele>
        <time>2017-08-14T08:56:15Z</time>
      </trkpt>
      <trkpt lat="44.21573" lon="0.84637">
        <ele>215.489</ele>
        <time>2017-08-14T08:56:21Z</time>
      </trkpt>
      <trkpt lat="44.21582" lon="0.84642">
        <ele>215.69</ele>
        <time>2017-08-14T08:56:26Z</time>
      </trkpt>
      <trkpt lat="44.21592" lon="0.84651">
        <ele>214.521</ele>
        <time>2017-08-14T08:56:32Z</time>
      </trkpt>
      <trkpt lat="44.21599" lon="0.84657">
        <ele>214.931</ele>
        <time>2017-08-14T08:56:39Z</time>
      </trkpt>
      <trkpt lat="44.21609" lon="0.84666">
        <ele>213.29</ele>
        <time>2017-08-14T08:56:45Z</time>
      </trkpt>
      <trkpt lat="44.21621" lon="0.84678">
        <ele>213.87</ele>
        <time>2017-08-14T08:56:51Z</time>
      </trkpt>
      <trkpt lat="44.21628" lon="0.84687">
        <ele>214.73</ele>
        <time>2017-08-14T08:56:55Z</time>
      </trkpt>
      <trkpt lat="44.21627" lon="0.84697">
        <ele>212.879</ele>
        <time>2017-08-14T08:56:59Z</time>
      </trkpt>
      <trkpt lat="44.21625" lon="0.84718">
        <ele>213.879</ele>
        <time>2017-08-14T08:57:06Z</time>
      </trkpt>
      <trkpt lat="44.2162" lon="0.84742">
        <ele>213.648</ele>
        <time>2017-08-14T08:57:13Z</time>
      </trkpt>
      <trkpt lat="44.21612" lon="0.84771">
        <ele>214.879</ele>
        <time>2017-08-14T08:57:20Z</time>
      </trkpt>
      <trkpt lat="44.21605" lon="0.84793">
        <ele>215.589</ele>
        <time>2017-08-14T08:57:25Z</time>
      </trkpt>
      <trkpt lat="44.21592" lon="0.84828">
        <ele>211.129</ele>
        <time>2017-08-14T08:57:33Z</time>
      </trkpt>
      <trkpt lat="44.21574" lon="0.84862">
        <ele>204.899</ele>
        <time>2017-08-14T08:57:41Z</time>
      </trkpt>
      <trkpt lat="44.21542" lon="0.84902">
        <ele>200.098</ele>
        <time>2017-08-14T08:57:52Z</time>
      </trkpt>
      <trkpt lat="44.21514" lon="0.84941">
        <ele>197.178</ele>
        <time>2017-08-14T08:58:01Z</time>
      </trkpt>
      <trkpt lat="44.21484" lon="0.84991">
        <ele>196.247</ele>
        <time>2017-08-14T08:58:10Z</time>
      </trkpt>
      <trkpt lat="44.21455" lon="0.85036">
        <ele>194.988</ele>
        <time>2017-08-14T08:58:17Z</time>
      </trkpt>
      <trkpt lat="44.21433" lon="0.85068">
        <ele>194.139</ele>
        <time>2017-08-14T08:58:23Z</time>
      </trkpt>
      <trkpt lat="44.21421" lon="0.85088">
        <ele>194.56</ele>
        <time>2017-08-14T08:58:29Z</time>
      </trkpt>
      <trkpt lat="44.21401" lon="0.85116">
        <ele>195.219</ele>
        <time>2017-08-14T08:58:39Z</time>
      </trkpt>
      <trkpt lat="44.21377" lon="0.85144">
        <ele>195.358</ele>
        <time>2017-08-14T08:58:49Z</time>
      </trkpt>
      <trkpt lat="44.21355" lon="0.85174">
        <ele>193.318</ele>
        <time>2017-08-14T08:58:59Z</time>
      </trkpt>
      <trkpt lat="44.21342" lon="0.85202">
        <ele>191.947</ele>
        <time>2017-08-14T08:59:06Z</time>
      </trkpt>
      <trkpt lat="44.21329" lon="0.85234">
        <ele>190.557</ele>
        <time>2017-08-14T08:59:12Z</time>
      </trkpt>
      <trkpt lat="44.21302" lon="0.85278">
        <ele>191.079</ele>
        <time>2017-08-14T08:59:21Z</time>
      </trkpt>
      <trkpt lat="44.21286" lon="0.853">
        <ele>191.73</ele>
        <time>2017-08-14T08:59:27Z</time>
      </trkpt>
      <trkpt lat="44.21266" lon="0.85328">
        <ele>193.51</ele>
        <time>2017-08-14T08:59:36Z</time>
      </trkpt>
      <trkpt lat="44.21247" lon="0.8535">
        <ele>195.591</ele>
        <time>2017-08-14T08:59:43Z</time>
      </trkpt>
      <trkpt lat="44.21225" lon="0.85371">
        <ele>199.941</ele>
        <time>2017-08-14T08:59:50Z</time>
      </trkpt>
      <trkpt lat="44.21187" lon="0.854">
        <ele>194.837</ele>
        <time>2017-08-14T09:00:00Z</time>
      </trkpt>
      <trkpt lat="44.21151" lon="0.85425">
        <ele>190.997</ele>
        <time>2017-08-14T09:00:09Z</time>
      </trkpt>
      <trkpt lat="44.21115" lon="0.85448">
        <ele>190.457</ele>
        <time>2017-08-14T09:00:19Z</time>
      </trkpt>
      <trkpt lat="44.21096" lon="0.85451">
        <ele>188.297</ele>
        <time>2017-08-14T09:00:25Z</time>
      </trkpt>
      <trkpt lat="44.21084" lon="0.85451">
        <ele>186.597</ele>
        <time>2017-08-14T09:00:30Z</time>
      </trkpt>
      <trkpt lat="44.21082" lon="0.85451">
        <ele>185.138</ele>
        <time>2017-08-14T09:00:36Z</time>
      </trkpt>
      <trkpt lat="44.21076" lon="0.85449">
        <ele>182.767</ele>
        <time>2017-08-14T09:01:02Z</time>
      </trkpt>
      <trkpt lat="44.2105" lon="0.85444">
        <ele>180.195</ele>
        <time>2017-08-14T09:01:09Z</time>
      </trkpt>
      <trkpt lat="44.21036" lon="0.85441">
        <ele>178.876</ele>
        <time>2017-08-14T09:01:13Z</time>
      </trkpt>
      <trkpt lat="44.21035" lon="0.85441">
        <ele>178.188</ele>
        <time>2017-08-14T09:01:18Z</time>
      </trkpt>
      <trkpt lat="44.21036" lon="0.85441">
        <ele>176.687</ele>
        <time>2017-08-14T09:02:00Z</time>
      </trkpt>
      <trkpt lat="44.21036" lon="0.85441">
        <ele>182.217</ele>
        <time>2017-08-14T09:05:43Z</time>
      </trkpt>
      <trkpt lat="44.21037" lon="0.85441">
        <ele>181.837</ele>
        <time>2017-08-14T09:05:55Z</time>
      </trkpt>
      <trkpt lat="44.21048" lon="0.85443">
        <ele>181.948</ele>
        <time>2017-08-14T09:06:07Z</time>
      </trkpt>
      <trkpt lat="44.21058" lon="0.85447">
        <ele>182.368</ele>
        <time>2017-08-14T09:06:18Z</time>
      </trkpt>
      <trkpt lat="44.21068" lon="0.85448">
        <ele>182.458</ele>
        <time>2017-08-14T09:06:28Z</time>
      </trkpt>
      <trkpt lat="44.21078" lon="0.85449">
        <ele>182.678</ele>
        <time>2017-08-14T09:06:39Z</time>
      </trkpt>
      <trkpt lat="44.2109" lon="0.8545">
        <ele>182.888</ele>
        <time>2017-08-14T09:06:50Z</time>
      </trkpt>
      <trkpt lat="44.21103" lon="0.85449">
        <ele>183.008</ele>
        <time>2017-08-14T09:07:02Z</time>
      </trkpt>
      <trkpt lat="44.21118" lon="0.85448">
        <ele>183.147</ele>
        <time>2017-08-14T09:07:14Z</time>
      </trkpt>
      <trkpt lat="44.21121" lon="0.85448">
        <ele>183.097</ele>
        <time>2017-08-14T09:07:20Z</time>
      </trkpt>
      <trkpt lat="44.21126" lon="0.85445">
        <ele>183.708</ele>
        <time>2017-08-14T09:10:55Z</time>
      </trkpt>
      <trkpt lat="44.21137" lon="0.85437">
        <ele>184.358</ele>
        <time>2017-08-14T09:11:01Z</time>
      </trkpt>
      <trkpt lat="44.21145" lon="0.8543">
        <ele>185.118</ele>
        <time>2017-08-14T09:11:07Z</time>
      </trkpt>
      <trkpt lat="44.21155" lon="0.85424">
        <ele>185.758</ele>
        <time>2017-08-14T09:11:14Z</time>
      </trkpt>
      <trkpt lat="44.21166" lon="0.85416">
        <ele>186.628</ele>
        <time>2017-08-14T09:11:23Z</time>
      </trkpt>
      <trkpt lat="44.21175" lon="0.8541">
        <ele>187.199</ele>
        <time>2017-08-14T09:11:31Z</time>
      </trkpt>
      <trkpt lat="44.21186" lon="0.85403">
        <ele>188.789</ele>
        <time>2017-08-14T09:11:42Z</time>
      </trkpt>
      <trkpt lat="44.21195" lon="0.85396">
        <ele>189.909</ele>
        <time>2017-08-14T09:11:50Z</time>
      </trkpt>
      <trkpt lat="44.21207" lon="0.85387">
        <ele>190.46</ele>
        <time>2017-08-14T09:12:01Z</time>
      </trkpt>
      <trkpt lat="44.21221" lon="0.85377">
        <ele>191.579</ele>
        <time>2017-08-14T09:12:13Z</time>
      </trkpt>
      <trkpt lat="44.21231" lon="0.85369">
        <ele>193.499</ele>
        <time>2017-08-14T09:12:22Z</time>
      </trkpt>
      <trkpt lat="44.21241" lon="0.85361">
        <ele>194.468</ele>
        <time>2017-08-14T09:12:32Z</time>
      </trkpt>
      <trkpt lat="44.21249" lon="0.85352">
        <ele>198.22</ele>
        <time>2017-08-14T09:12:39Z</time>
      </trkpt>
      <trkpt lat="44.21259" lon="0.8534">
        <ele>196.769</ele>
        <time>2017-08-14T09:12:48Z</time>
      </trkpt>
      <trkpt lat="44.21264" lon="0.85333">
        <ele>193.607</ele>
        <time>2017-08-14T09:12:54Z</time>
      </trkpt>
      <trkpt lat="44.21268" lon="0.85328">
        <ele>192.988</ele>
        <time>2017-08-14T09:12:58Z</time>
      </trkpt>
      <trkpt lat="44.21273" lon="0.8532">
        <ele>190.638</ele>
        <time>2017-08-14T09:13:07Z</time>
      </trkpt>
      <trkpt lat="44.21279" lon="0.85312">
        <ele>188.738</ele>
        <time>2017-08-14T09:13:16Z</time>
      </trkpt>
      <trkpt lat="44.21285" lon="0.85304">
        <ele>186.557</ele>
        <time>2017-08-14T09:13:24Z</time>
      </trkpt>
      <trkpt lat="44.21292" lon="0.85295">
        <ele>184.868</ele>
        <time>2017-08-14T09:13:33Z</time>
      </trkpt>
      <trkpt lat="44.21299" lon="0.85283">
        <ele>183.337</ele>
        <time>2017-08-14T09:13:42Z</time>
      </trkpt>
      <trkpt lat="44.21307" lon="0.85271">
        <ele>182.258</ele>
        <time>2017-08-14T09:13:53Z</time>
      </trkpt>
      <trkpt lat="44.21315" lon="0.85259">
        <ele>181.828</ele>
        <time>2017-08-14T09:14:03Z</time>
      </trkpt>
      <trkpt lat="44.21323" lon="0.85245">
        <ele>181.738</ele>
        <time>2017-08-14T09:14:14Z</time>
      </trkpt>
      <trkpt lat="44.21333" lon="0.85226">
        <ele>181.008</ele>
        <time>2017-08-14T09:14:27Z</time>
      </trkpt>
      <trkpt lat="44.21339" lon="0.85209">
        <ele>180.908</ele>
        <time>2017-08-14T09:14:38Z</time>
      </trkpt>
      <trkpt lat="44.21345" lon="0.85195">
        <ele>183.859</ele>
        <time>2017-08-14T09:14:48Z</time>
      </trkpt>
      <trkpt lat="44.2135" lon="0.85182">
        <ele>183.808</ele>
        <time>2017-08-14T09:14:59Z</time>
      </trkpt>
      <trkpt lat="44.21358" lon="0.85169">
        <ele>183.748</ele>
        <time>2017-08-14T09:15:10Z</time>
      </trkpt>
      <trkpt lat="44.21367" lon="0.85155">
        <ele>183.688</ele>
        <time>2017-08-14T09:15:23Z</time>
      </trkpt>
      <trkpt lat="44.21375" lon="0.85145">
        <ele>184.148</ele>
        <time>2017-08-14T09:15:32Z</time>
      </trkpt>
      <trkpt lat="44.21384" lon="0.85136">
        <ele>184.578</ele>
        <time>2017-08-14T09:15:40Z</time>
      </trkpt>
      <trkpt lat="44.21395" lon="0.85123">
        <ele>184.398</ele>
        <time>2017-08-14T09:15:51Z</time>
      </trkpt>
      <trkpt lat="44.21406" lon="0.8511">
        <ele>184.608</ele>
        <time>2017-08-14T09:16:01Z</time>
      </trkpt>
      <trkpt lat="44.21416" lon="0.85096">
        <ele>183.688</ele>
        <time>2017-08-14T09:16:12Z</time>
      </trkpt>
      <trkpt lat="44.21422" lon="0.85087">
        <ele>183.288</ele>
        <time>2017-08-14T09:16:19Z</time>
      </trkpt>
      <trkpt lat="44.21431" lon="0.85071">
        <ele>181.787</ele>
        <time>2017-08-14T09:16:29Z</time>
      </trkpt>
      <trkpt lat="44.21442" lon="0.85054">
        <ele>180.148</ele>
        <time>2017-08-14T09:16:38Z</time>
      </trkpt>
      <trkpt lat="44.21452" lon="0.85038">
        <ele>179.808</ele>
        <time>2017-08-14T09:16:48Z</time>
      </trkpt>
      <trkpt lat="44.2146" lon="0.85025">
        <ele>178.888</ele>
        <time>2017-08-14T09:16:59Z</time>
      </trkpt>
      <trkpt lat="44.21468" lon="0.85013">
        <ele>180.439</ele>
        <time>2017-08-14T09:17:09Z</time>
      </trkpt>
      <trkpt lat="44.21475" lon="0.85003">
        <ele>180.328</ele>
        <time>2017-08-14T09:17:18Z</time>
      </trkpt>
      <trkpt lat="44.21483" lon="0.8499">
        <ele>179.518</ele>
        <time>2017-08-14T09:17:29Z</time>
      </trkpt>
      <trkpt lat="44.21491" lon="0.84978">
        <ele>178.888</ele>
        <time>2017-08-14T09:17:40Z</time>
      </trkpt>
      <trkpt lat="44.215" lon="0.84961">
        <ele>179.008</ele>
        <time>2017-08-14T09:17:54Z</time>
      </trkpt>
      <trkpt lat="44.21507" lon="0.84949">
        <ele>179.219</ele>
        <time>2017-08-14T09:18:04Z</time>
      </trkpt>
      <trkpt lat="44.21516" lon="0.84936">
        <ele>179.578</ele>
        <time>2017-08-14T09:18:16Z</time>
      </trkpt>
      <trkpt lat="44.21525" lon="0.84923">
        <ele>180.209</ele>
        <time>2017-08-14T09:18:27Z</time>
      </trkpt>
      <trkpt lat="44.21535" lon="0.84909">
        <ele>182.159</ele>
        <time>2017-08-14T09:18:39Z</time>
      </trkpt>
      <trkpt lat="44.21544" lon="0.84897">
        <ele>182.399</ele>
        <time>2017-08-14T09:18:49Z</time>
      </trkpt>
      <trkpt lat="44.21554" lon="0.84884">
        <ele>182.528</ele>
        <time>2017-08-14T09:18:59Z</time>
      </trkpt>
      <trkpt lat="44.21566" lon="0.8487">
        <ele>182.089</ele>
        <time>2017-08-14T09:19:11Z</time>
      </trkpt>
      <trkpt lat="44.2158" lon="0.84852">
        <ele>182.569</ele>
        <time>2017-08-14T09:19:26Z</time>
      </trkpt>
      <trkpt lat="44.21589" lon="0.84837">
        <ele>182.458</ele>
        <time>2017-08-14T09:19:37Z</time>
      </trkpt>
      <trkpt lat="44.21595" lon="0.84824">
        <ele>181.958</ele>
        <time>2017-08-14T09:19:46Z</time>
      </trkpt>
      <trkpt lat="44.21601" lon="0.84809">
        <ele>179.356</ele>
        <time>2017-08-14T09:19:55Z</time>
      </trkpt>
      <trkpt lat="44.21608" lon="0.84791">
        <ele>172.754</ele>
        <time>2017-08-14T09:20:04Z</time>
      </trkpt>
      <trkpt lat="44.21612" lon="0.84775">
        <ele>167.225</ele>
        <time>2017-08-14T09:20:13Z</time>
      </trkpt>
      <trkpt lat="44.21617" lon="0.84764">
        <ele>179.208</ele>
        <time>2017-08-14T09:20:21Z</time>
      </trkpt>
      <trkpt lat="44.21621" lon="0.84752">
        <ele>185.649</ele>
        <time>2017-08-14T09:20:29Z</time>
      </trkpt>
      <trkpt lat="44.21622" lon="0.8475">
        <ele>185.818</ele>
        <time>2017-08-14T09:20:30Z</time>
      </trkpt>
      <trkpt lat="44.21626" lon="0.84741">
        <ele>187.469</ele>
        <time>2017-08-14T09:20:36Z</time>
      </trkpt>
      <trkpt lat="44.21627" lon="0.84733">
        <ele>190.368</ele>
        <time>2017-08-14T09:20:42Z</time>
      </trkpt>
      <trkpt lat="44.2163" lon="0.8472">
        <ele>191.677</ele>
        <time>2017-08-14T09:20:49Z</time>
      </trkpt>
      <trkpt lat="44.21631" lon="0.84708">
        <ele>193.959</ele>
        <time>2017-08-14T09:20:55Z</time>
      </trkpt>
      <trkpt lat="44.21632" lon="0.84697">
        <ele>194.078</ele>
        <time>2017-08-14T09:21:02Z</time>
      </trkpt>
      <trkpt lat="44.21634" lon="0.84686">
        <ele>192.058</ele>
        <time>2017-08-14T09:21:08Z</time>
      </trkpt>
      <trkpt lat="44.21635" lon="0.84675">
        <ele>189.254</ele>
        <time>2017-08-14T09:21:15Z</time>
      </trkpt>
      <trkpt lat="44.21637" lon="0.84665">
        <ele>184.145</ele>
        <time>2017-08-14T09:21:22Z</time>
      </trkpt>
      <trkpt lat="44.21638" lon="0.8465">
        <ele>181.307</ele>
        <time>2017-08-14T09:21:32Z</time>
      </trkpt>
      <trkpt lat="44.2164" lon="0.84639">
        <ele>180.976</ele>
        <time>2017-08-14T09:21:39Z</time>
      </trkpt>
      <trkpt lat="44.21642" lon="0.84628">
        <ele>178.266</ele>
        <time>2017-08-14T09:21:46Z</time>
      </trkpt>
      <trkpt lat="44.21644" lon="0.84614">
        <ele>174.266</ele>
        <time>2017-08-14T09:21:54Z</time>
      </trkpt>
      <trkpt lat="44.21645" lon="0.84605">
        <ele>173.046</ele>
        <time>2017-08-14T09:22:00Z</time>
      </trkpt>
      <trkpt lat="44.21647" lon="0.8459">
        <ele>168.284</ele>
        <time>2017-08-14T09:22:08Z</time>
      </trkpt>
      <trkpt lat="44.21649" lon="0.84571">
        <ele>179.828</ele>
        <time>2017-08-14T09:22:17Z</time>
      </trkpt>
      <trkpt lat="44.21649" lon="0.84555">
        <ele>186.609</ele>
        <time>2017-08-14T09:22:26Z</time>
      </trkpt>
      <trkpt lat="44.2165" lon="0.84533">
        <ele>190.549</ele>
        <time>2017-08-14T09:22:38Z</time>
      </trkpt>
      <trkpt lat="44.21653" lon="0.84515">
        <ele>189.197</ele>
        <time>2017-08-14T09:22:47Z</time>
      </trkpt>
      <trkpt lat="44.21654" lon="0.845">
        <ele>185.206</ele>
        <time>2017-08-14T09:22:54Z</time>
      </trkpt>
      <trkpt lat="44.21657" lon="0.84481">
        <ele>178.055</ele>
        <time>2017-08-14T09:23:02Z</time>
      </trkpt>
      <trkpt lat="44.2166" lon="0.84462">
        <ele>171.586</ele>
        <time>2017-08-14T09:23:12Z</time>
      </trkpt>
      <trkpt lat="44.21663" lon="0.84458">
        <ele>171.047</ele>
        <time>2017-08-14T09:23:15Z</time>
      </trkpt>
      <trkpt lat="44.21668" lon="0.84461">
        <ele>173.458</ele>
        <time>2017-08-14T09:23:19Z</time>
      </trkpt>
      <trkpt lat="44.21674" lon="0.84475">
        <ele>171.667</ele>
        <time>2017-08-14T09:23:30Z</time>
      </trkpt>
      <trkpt lat="44.21681" lon="0.8449">
        <ele>173.119</ele>
        <time>2017-08-14T09:23:40Z</time>
      </trkpt>
      <trkpt lat="44.21688" lon="0.84502">
        <ele>173.868</ele>
        <time>2017-08-14T09:23:49Z</time>
      </trkpt>
      <trkpt lat="44.21694" lon="0.84511">
        <ele>174.508</ele>
        <time>2017-08-14T09:23:57Z</time>
      </trkpt>
      <trkpt lat="44.21702" lon="0.84523">
        <ele>175.069</ele>
        <time>2017-08-14T09:24:06Z</time>
      </trkpt>
      <trkpt lat="44.21711" lon="0.84533">
        <ele>175.769</ele>
        <time>2017-08-14T09:24:15Z</time>
      </trkpt>
      <trkpt lat="44.21717" lon="0.84538">
        <ele>176.689</ele>
        <time>2017-08-14T09:24:21Z</time>
      </trkpt>
      <trkpt lat="44.21724" lon="0.84549">
        <ele>176.178</ele>
        <time>2017-08-14T09:24:31Z</time>
      </trkpt>
      <trkpt lat="44.21733" lon="0.84559">
        <ele>176.42</ele>
        <time>2017-08-14T09:24:40Z</time>
      </trkpt>
      <trkpt lat="44.21743" lon="0.84571">
        <ele>176.599</ele>
        <time>2017-08-14T09:24:50Z</time>
      </trkpt>
      <trkpt lat="44.21754" lon="0.84585">
        <ele>174.468</ele>
        <time>2017-08-14T09:24:59Z</time>
      </trkpt>
      <trkpt lat="44.21766" lon="0.84599">
        <ele>172.738</ele>
        <time>2017-08-14T09:25:09Z</time>
      </trkpt>
      <trkpt lat="44.21779" lon="0.84614">
        <ele>171.359</ele>
        <time>2017-08-14T09:25:20Z</time>
      </trkpt>
      <trkpt lat="44.21787" lon="0.84624">
        <ele>170.638</ele>
        <time>2017-08-14T09:25:29Z</time>
      </trkpt>
      <trkpt lat="44.21799" lon="0.8464">
        <ele>169.358</ele>
        <time>2017-08-14T09:25:40Z</time>
      </trkpt>
      <trkpt lat="44.2181" lon="0.84654">
        <ele>168.589</ele>
        <time>2017-08-14T09:25:50Z</time>
      </trkpt>
      <trkpt lat="44.21821" lon="0.84669">
        <ele>167.859</ele>
        <time>2017-08-14T09:26:00Z</time>
      </trkpt>
      <trkpt lat="44.21828" lon="0.84681">
        <ele>167.469</ele>
        <time>2017-08-14T09:26:08Z</time>
      </trkpt>
      <trkpt lat="44.21838" lon="0.84701">
        <ele>166.909</ele>
        <time>2017-08-14T09:26:19Z</time>
      </trkpt>
      <trkpt lat="44.21842" lon="0.84702">
        <ele>166.969</ele>
        <time>2017-08-14T09:26:23Z</time>
      </trkpt>
      <trkpt lat="44.21851" lon="0.84694">
        <ele>166.278</ele>
        <time>2017-08-14T09:26:32Z</time>
      </trkpt>
      <trkpt lat="44.21858" lon="0.84686">
        <ele>166.169</ele>
        <time>2017-08-14T09:26:40Z</time>
      </trkpt>
      <trkpt lat="44.21864" lon="0.84678">
        <ele>165.539</ele>
        <time>2017-08-14T09:26:48Z</time>
      </trkpt>
      <trkpt lat="44.21873" lon="0.84666">
        <ele>164.959</ele>
        <time>2017-08-14T09:26:57Z</time>
      </trkpt>
      <trkpt lat="44.21883" lon="0.84652">
        <ele>164.429</ele>
        <time>2017-08-14T09:27:07Z</time>
      </trkpt>
      <trkpt lat="44.21896" lon="0.84635">
        <ele>163.789</ele>
        <time>2017-08-14T09:27:19Z</time>
      </trkpt>
      <trkpt lat="44.21905" lon="0.84623">
        <ele>163.279</ele>
        <time>2017-08-14T09:27:28Z</time>
      </trkpt>
      <trkpt lat="44.21914" lon="0.84611">
        <ele>162.529</ele>
        <time>2017-08-14T09:27:37Z</time>
      </trkpt>
      <trkpt lat="44.21925" lon="0.84597">
        <ele>162.009</ele>
        <time>2017-08-14T09:27:47Z</time>
      </trkpt>
      <trkpt lat="44.21937" lon="0.84583">
        <ele>160.909</ele>
        <time>2017-08-14T09:27:57Z</time>
      </trkpt>
      <trkpt lat="44.2195" lon="0.84572">
        <ele>160.109</ele>
        <time>2017-08-14T09:28:07Z</time>
      </trkpt>
      <trkpt lat="44.21965" lon="0.84559">
        <ele>159.379</ele>
        <time>2017-08-14T09:28:18Z</time>
      </trkpt>
      <trkpt lat="44.2198" lon="0.84551">
        <ele>158.87</ele>
        <time>2017-08-14T09:28:30Z</time>
      </trkpt>
      <trkpt lat="44.21988" lon="0.84555">
        <ele>159</ele>
        <time>2017-08-14T09:28:38Z</time>
      </trkpt>
      <trkpt lat="44.21993" lon="0.84556">
        <ele>158.63</ele>
        <time>2017-08-14T09:28:45Z</time>
      </trkpt>
      <trkpt lat="44.21994" lon="0.84556">
        <ele>158.119</ele>
        <time>2017-08-14T09:28:53Z</time>
      </trkpt>
      <trkpt lat="44.21997" lon="0.84557">
        <ele>158.13</ele>
        <time>2017-08-14T09:28:58Z</time>
      </trkpt>
      <trkpt lat="44.21999" lon="0.84556">
        <ele>157.51</ele>
        <time>2017-08-14T09:29:05Z</time>
      </trkpt>
      <trkpt lat="44.21998" lon="0.84556">
        <ele>164.511</ele>
        <time>2017-08-14T09:33:14Z</time>
      </trkpt>
      <trkpt lat="44.21996" lon="0.84557">
        <ele>164.511</ele>
        <time>2017-08-14T09:33:16Z</time>
      </trkpt>
      <trkpt lat="44.21987" lon="0.84554">
        <ele>163.6</ele>
        <time>2017-08-14T09:33:22Z</time>
      </trkpt>
      <trkpt lat="44.21977" lon="0.84553">
        <ele>163.17</ele>
        <time>2017-08-14T09:33:25Z</time>
      </trkpt>
      <trkpt lat="44.21958" lon="0.84563">
        <ele>162.981</ele>
        <time>2017-08-14T09:33:30Z</time>
      </trkpt>
      <trkpt lat="44.21931" lon="0.84587">
        <ele>163.591</ele>
        <time>2017-08-14T09:33:37Z</time>
      </trkpt>
      <trkpt lat="44.21904" lon="0.84621">
        <ele>164.65</ele>
        <time>2017-08-14T09:33:45Z</time>
      </trkpt>
      <trkpt lat="44.21874" lon="0.84661">
        <ele>165.34</ele>
        <time>2017-08-14T09:33:54Z</time>
      </trkpt>
      <trkpt lat="44.2186" lon="0.84679">
        <ele>165.67</ele>
        <time>2017-08-14T09:33:58Z</time>
      </trkpt>
      <trkpt lat="44.21849" lon="0.84691">
        <ele>166.28</ele>
        <time>2017-08-14T09:34:01Z</time>
      </trkpt>
      <trkpt lat="44.21836" lon="0.84694">
        <ele>167.541</ele>
        <time>2017-08-14T09:34:05Z</time>
      </trkpt>
      <trkpt lat="44.21833" lon="0.8469">
        <ele>167.701</ele>
        <time>2017-08-14T09:34:06Z</time>
      </trkpt>
      <trkpt lat="44.2181" lon="0.8465">
        <ele>169.041</ele>
        <time>2017-08-14T09:34:15Z</time>
      </trkpt>
      <trkpt lat="44.21785" lon="0.84617">
        <ele>170.441</ele>
        <time>2017-08-14T09:34:24Z</time>
      </trkpt>
      <trkpt lat="44.21754" lon="0.84578">
        <ele>171.92</ele>
        <time>2017-08-14T09:34:35Z</time>
      </trkpt>
      <trkpt lat="44.21732" lon="0.84552">
        <ele>172.76</ele>
        <time>2017-08-14T09:34:43Z</time>
      </trkpt>
      <trkpt lat="44.21709" lon="0.84524">
        <ele>173.809</ele>
        <time>2017-08-14T09:34:52Z</time>
      </trkpt>
      <trkpt lat="44.2169" lon="0.84497">
        <ele>174.329</ele>
        <time>2017-08-14T09:35:00Z</time>
      </trkpt>
      <trkpt lat="44.21677" lon="0.8447">
        <ele>175.329</ele>
        <time>2017-08-14T09:35:07Z</time>
      </trkpt>
      <trkpt lat="44.21668" lon="0.8445">
        <ele>176.41</ele>
        <time>2017-08-14T09:35:12Z</time>
      </trkpt>
      <trkpt lat="44.2166" lon="0.84453">
        <ele>177.24</ele>
        <time>2017-08-14T09:35:16Z</time>
      </trkpt>
      <trkpt lat="44.21657" lon="0.84468">
        <ele>177.989</ele>
        <time>2017-08-14T09:35:19Z</time>
      </trkpt>
      <trkpt lat="44.21652" lon="0.84499">
        <ele>180.59</ele>
        <time>2017-08-14T09:35:26Z</time>
      </trkpt>
      <trkpt lat="44.21647" lon="0.8454">
        <ele>184.07</ele>
        <time>2017-08-14T09:35:34Z</time>
      </trkpt>
      <trkpt lat="44.21648" lon="0.84553">
        <ele>184.47</ele>
        <time>2017-08-14T09:35:36Z</time>
      </trkpt>
      <trkpt lat="44.21648" lon="0.84582">
        <ele>185.962</ele>
        <time>2017-08-14T09:35:40Z</time>
      </trkpt>
      <trkpt lat="44.21639" lon="0.84635">
        <ele>189.432</ele>
        <time>2017-08-14T09:35:47Z</time>
      </trkpt>
      <trkpt lat="44.2163" lon="0.84689">
        <ele>191.521</ele>
        <time>2017-08-14T09:35:54Z</time>
      </trkpt>
      <trkpt lat="44.21622" lon="0.84735">
        <ele>193.302</ele>
        <time>2017-08-14T09:36:00Z</time>
      </trkpt>
      <trkpt lat="44.21614" lon="0.84769">
        <ele>193.191</ele>
        <time>2017-08-14T09:36:04Z</time>
      </trkpt>
      <trkpt lat="44.21599" lon="0.84814">
        <ele>191.519</ele>
        <time>2017-08-14T09:36:09Z</time>
      </trkpt>
      <trkpt lat="44.21573" lon="0.84861">
        <ele>190.408</ele>
        <time>2017-08-14T09:36:15Z</time>
      </trkpt>
      <trkpt lat="44.21534" lon="0.84913">
        <ele>188.457</ele>
        <time>2017-08-14T09:36:22Z</time>
      </trkpt>
      <trkpt lat="44.21498" lon="0.84966">
        <ele>186.797</ele>
        <time>2017-08-14T09:36:28Z</time>
      </trkpt>
      <trkpt lat="44.21459" lon="0.85027">
        <ele>185.067</ele>
        <time>2017-08-14T09:36:34Z</time>
      </trkpt>
      <trkpt lat="44.21421" lon="0.85085">
        <ele>186.293</ele>
        <time>2017-08-14T09:36:40Z</time>
      </trkpt>
      <trkpt lat="44.21397" lon="0.8512">
        <ele>187.369</ele>
        <time>2017-08-14T09:36:45Z</time>
      </trkpt>
      <trkpt lat="44.21378" lon="0.85142">
        <ele>188.078</ele>
        <time>2017-08-14T09:36:50Z</time>
      </trkpt>
      <trkpt lat="44.21373" lon="0.85149">
        <ele>188.308</ele>
        <time>2017-08-14T09:36:53Z</time>
      </trkpt>
      <trkpt lat="44.2136" lon="0.85166">
        <ele>188.018</ele>
        <time>2017-08-14T09:36:57Z</time>
      </trkpt>
      <trkpt lat="44.21345" lon="0.85189">
        <ele>187.127</ele>
        <time>2017-08-14T09:37:01Z</time>
      </trkpt>
      <trkpt lat="44.21325" lon="0.8524">
        <ele>185.327</ele>
        <time>2017-08-14T09:37:07Z</time>
      </trkpt>
      <trkpt lat="44.21293" lon="0.8529">
        <ele>185.429</ele>
        <time>2017-08-14T09:37:13Z</time>
      </trkpt>
      <trkpt lat="44.21248" lon="0.85351">
        <ele>185.779</ele>
        <time>2017-08-14T09:37:21Z</time>
      </trkpt>
      <trkpt lat="44.21202" lon="0.8539">
        <ele>186.598</ele>
        <time>2017-08-14T09:37:28Z</time>
      </trkpt>
      <trkpt lat="44.21147" lon="0.85431">
        <ele>186.418</ele>
        <time>2017-08-14T09:37:36Z</time>
      </trkpt>
      <trkpt lat="44.21129" lon="0.85443">
        <ele>186.008</ele>
        <time>2017-08-14T09:37:39Z</time>
      </trkpt>
      <trkpt lat="44.21121" lon="0.85452">
        <ele>185.177</ele>
        <time>2017-08-14T09:37:43Z</time>
      </trkpt>
      <trkpt lat="44.21121" lon="0.85451">
        <ele>183.217</ele>
        <time>2017-08-14T09:38:00Z</time>
      </trkpt>
      <trkpt lat="44.21123" lon="0.85449">
        <ele>183.838</ele>
        <time>2017-08-14T09:39:07Z</time>
      </trkpt>
      <trkpt lat="44.21121" lon="0.85444">
        <ele>183.918</ele>
        <time>2017-08-14T09:39:11Z</time>
      </trkpt>
      <trkpt lat="44.21121" lon="0.85444">
        <ele>183.918</ele>
        <time>2017-08-14T09:39:12Z</time>
      </trkpt>
      <trkpt lat="44.21123" lon="0.85447">
        <ele>184.358</ele>
        <time>2017-08-14T09:39:20Z</time>
      </trkpt>
      <trkpt lat="44.21122" lon="0.85446">
        <ele>185.388</ele>
        <time>2017-08-14T09:39:46Z</time>
      </trkpt>
      <trkpt lat="44.21122" lon="0.85445">
        <ele>185.647</ele>
        <time>2017-08-14T09:39:59Z</time>
      </trkpt>
      <trkpt lat="44.21108" lon="0.85448">
        <ele>185.167</ele>
        <time>2017-08-14T09:40:08Z</time>
      </trkpt>
      <trkpt lat="44.21092" lon="0.85448">
        <ele>184.007</ele>
        <time>2017-08-14T09:40:16Z</time>
      </trkpt>
      <trkpt lat="44.21072" lon="0.85447">
        <ele>181.256</ele>
        <time>2017-08-14T09:40:25Z</time>
      </trkpt>
      <trkpt lat="44.21053" lon="0.85442">
        <ele>178.456</ele>
        <time>2017-08-14T09:40:34Z</time>
      </trkpt>
      <trkpt lat="44.21034" lon="0.85437">
        <ele>176.106</ele>
        <time>2017-08-14T09:40:42Z</time>
      </trkpt>
      <trkpt lat="44.21009" lon="0.85434">
        <ele>173.456</ele>
        <time>2017-08-14T09:40:51Z</time>
      </trkpt>
      <trkpt lat="44.20986" lon="0.85431">
        <ele>171.646</ele>
        <time>2017-08-14T09:40:59Z</time>
      </trkpt>
      <trkpt lat="44.20962" lon="0.85428">
        <ele>170.426</ele>
        <time>2017-08-14T09:41:07Z</time>
      </trkpt>
      <trkpt lat="44.20928" lon="0.85422">
        <ele>168.856</ele>
        <time>2017-08-14T09:41:18Z</time>
      </trkpt>
      <trkpt lat="44.20907" lon="0.85421">
        <ele>168.017</ele>
        <time>2017-08-14T09:41:26Z</time>
      </trkpt>
      <trkpt lat="44.20883" lon="0.85421">
        <ele>167.447</ele>
        <time>2017-08-14T09:41:35Z</time>
      </trkpt>
      <trkpt lat="44.20867" lon="0.85422">
        <ele>167.187</ele>
        <time>2017-08-14T09:41:43Z</time>
      </trkpt>
      <trkpt lat="44.20855" lon="0.85423">
        <ele>167.056</ele>
        <time>2017-08-14T09:41:50Z</time>
      </trkpt>
      <trkpt lat="44.20841" lon="0.85424">
        <ele>166.856</ele>
        <time>2017-08-14T09:41:58Z</time>
      </trkpt>
      <trkpt lat="44.20826" lon="0.85428">
        <ele>166.546</ele>
        <time>2017-08-14T09:42:06Z</time>
      </trkpt>
      <trkpt lat="44.20806" lon="0.8543">
        <ele>165.636</ele>
        <time>2017-08-14T09:42:14Z</time>
      </trkpt>
      <trkpt lat="44.20786" lon="0.85435">
        <ele>164.755</ele>
        <time>2017-08-14T09:42:22Z</time>
      </trkpt>
      <trkpt lat="44.20766" lon="0.85438">
        <ele>164.046</ele>
        <time>2017-08-14T09:42:29Z</time>
      </trkpt>
      <trkpt lat="44.20748" lon="0.85435">
        <ele>163.886</ele>
        <time>2017-08-14T09:42:36Z</time>
      </trkpt>
      <trkpt lat="44.20725" lon="0.85429">
        <ele>161.965</ele>
        <time>2017-08-14T09:42:45Z</time>
      </trkpt>
      <trkpt lat="44.20702" lon="0.85421">
        <ele>160.234</ele>
        <time>2017-08-14T09:42:53Z</time>
      </trkpt>
      <trkpt lat="44.20685" lon="0.85412">
        <ele>159.024</ele>
        <time>2017-08-14T09:43:00Z</time>
      </trkpt>
      <trkpt lat="44.20677" lon="0.85407">
        <ele>158.064</ele>
        <time>2017-08-14T09:43:03Z</time>
      </trkpt>
      <trkpt lat="44.20658" lon="0.85399">
        <ele>155.421</ele>
        <time>2017-08-14T09:43:07Z</time>
      </trkpt>
      <trkpt lat="44.2062" lon="0.85403">
        <ele>152.032</ele>
        <time>2017-08-14T09:43:12Z</time>
      </trkpt>
      <trkpt lat="44.2058" lon="0.8541">
        <ele>149.813</ele>
        <time>2017-08-14T09:43:17Z</time>
      </trkpt>
      <trkpt lat="44.20576" lon="0.85411">
        <ele>149.394</ele>
        <time>2017-08-14T09:43:19Z</time>
      </trkpt>
      <trkpt lat="44.20573" lon="0.85412">
        <ele>149.446</ele>
        <time>2017-08-14T09:43:25Z</time>
      </trkpt>
      <trkpt lat="44.20566" lon="0.85413">
        <ele>149.276</ele>
        <time>2017-08-14T09:43:30Z</time>
      </trkpt>
      <trkpt lat="44.20566" lon="0.85413">
        <ele>148.946</ele>
        <time>2017-08-14T09:43:47Z</time>
      </trkpt>
      <trkpt lat="44.20564" lon="0.8541">
        <ele>148.615</ele>
        <time>2017-08-14T09:43:54Z</time>
      </trkpt>
      <trkpt lat="44.20564" lon="0.85411">
        <ele>148.505</ele>
        <time>2017-08-14T09:43:59Z</time>
      </trkpt>
      <trkpt lat="44.20564" lon="0.85408">
        <ele>148.415</ele>
        <time>2017-08-14T09:44:06Z</time>
      </trkpt>
      <trkpt lat="44.20564" lon="0.85408">
        <ele>148.405</ele>
        <time>2017-08-14T09:44:07Z</time>
      </trkpt>
      <trkpt lat="44.20563" lon="0.85411">
        <ele>148.215</ele>
        <time>2017-08-14T09:44:14Z</time>
      </trkpt>
      <trkpt lat="44.20562" lon="0.85412">
        <ele>146.425</ele>
        <time>2017-08-14T09:44:53Z</time>
      </trkpt>
      <trkpt lat="44.20552" lon="0.85411">
        <ele>145.873</ele>
        <time>2017-08-14T09:44:59Z</time>
      </trkpt>
      <trkpt lat="44.2053" lon="0.85403">
        <ele>143.493</ele>
        <time>2017-08-14T09:45:05Z</time>
      </trkpt>
      <trkpt lat="44.20492" lon="0.85384">
        <ele>141.604</ele>
        <time>2017-08-14T09:45:13Z</time>
      </trkpt>
      <trkpt lat="44.20453" lon="0.85368">
        <ele>141.205</ele>
        <time>2017-08-14T09:45:21Z</time>
      </trkpt>
      <trkpt lat="44.20417" lon="0.85357">
        <ele>141.244</ele>
        <time>2017-08-14T09:45:29Z</time>
      </trkpt>
      <trkpt lat="44.20399" lon="0.85345">
        <ele>139.842</ele>
        <time>2017-08-14T09:45:34Z</time>
      </trkpt>
      <trkpt lat="44.2038" lon="0.85334">
        <ele>137.181</ele>
        <time>2017-08-14T09:45:38Z</time>
      </trkpt>
      <trkpt lat="44.20335" lon="0.85323">
        <ele>132.991</ele>
        <time>2017-08-14T09:45:44Z</time>
      </trkpt>
      <trkpt lat="44.20294" lon="0.8533">
        <ele>130.803</ele>
        <time>2017-08-14T09:45:49Z</time>
      </trkpt>
      <trkpt lat="44.20272" lon="0.85332">
        <ele>130.132</ele>
        <time>2017-08-14T09:45:52Z</time>
      </trkpt>
      <trkpt lat="44.20246" lon="0.85324">
        <ele>129.593</ele>
        <time>2017-08-14T09:45:56Z</time>
      </trkpt>
      <trkpt lat="44.20205" lon="0.85304">
        <ele>129.593</ele>
        <time>2017-08-14T09:46:04Z</time>
      </trkpt>
      <trkpt lat="44.20169" lon="0.85284">
        <ele>129.103</ele>
        <time>2017-08-14T09:46:13Z</time>
      </trkpt>
      <trkpt lat="44.2014" lon="0.8527">
        <ele>128.673</ele>
        <time>2017-08-14T09:46:22Z</time>
      </trkpt>
      <trkpt lat="44.20116" lon="0.8526">
        <ele>127.623</ele>
        <time>2017-08-14T09:46:30Z</time>
      </trkpt>
      <trkpt lat="44.2009" lon="0.85248">
        <ele>126.643</ele>
        <time>2017-08-14T09:46:38Z</time>
      </trkpt>
      <trkpt lat="44.20055" lon="0.85229">
        <ele>125.082</ele>
        <time>2017-08-14T09:46:48Z</time>
      </trkpt>
      <trkpt lat="44.20047" lon="0.85224">
        <ele>124.652</ele>
        <time>2017-08-14T09:46:50Z</time>
      </trkpt>
      <trkpt lat="44.2004" lon="0.85217">
        <ele>124.251</ele>
        <time>2017-08-14T09:46:52Z</time>
      </trkpt>
      <trkpt lat="44.20001" lon="0.85161">
        <ele>121.961</ele>
        <time>2017-08-14T09:47:03Z</time>
      </trkpt>
      <trkpt lat="44.19985" lon="0.85134">
        <ele>121.452</ele>
        <time>2017-08-14T09:47:08Z</time>
      </trkpt>
      <trkpt lat="44.19963" lon="0.85103">
        <ele>121.252</ele>
        <time>2017-08-14T09:47:16Z</time>
      </trkpt>
      <trkpt lat="44.19946" lon="0.85075">
        <ele>121.763</ele>
        <time>2017-08-14T09:47:25Z</time>
      </trkpt>
      <trkpt lat="44.19935" lon="0.85058">
        <ele>123.263</ele>
        <time>2017-08-14T09:47:33Z</time>
      </trkpt>
      <trkpt lat="44.19927" lon="0.85044">
        <ele>124.774</ele>
        <time>2017-08-14T09:47:40Z</time>
      </trkpt>
      <trkpt lat="44.19917" lon="0.85027">
        <ele>127.234</ele>
        <time>2017-08-14T09:47:49Z</time>
      </trkpt>
      <trkpt lat="44.19906" lon="0.85012">
        <ele>129.843</ele>
        <time>2017-08-14T09:47:58Z</time>
      </trkpt>
      <trkpt lat="44.19903" lon="0.84999">
        <ele>130.461</ele>
        <time>2017-08-14T09:48:04Z</time>
      </trkpt>
      <trkpt lat="44.19904" lon="0.84973">
        <ele>130.111</ele>
        <time>2017-08-14T09:48:13Z</time>
      </trkpt>
      <trkpt lat="44.19905" lon="0.84944">
        <ele>129.61</ele>
        <time>2017-08-14T09:48:21Z</time>
      </trkpt>
      <trkpt lat="44.19905" lon="0.84913">
        <ele>128.4</ele>
        <time>2017-08-14T09:48:26Z</time>
      </trkpt>
      <trkpt lat="44.19907" lon="0.84851">
        <ele>126.861</ele>
        <time>2017-08-14T09:48:35Z</time>
      </trkpt>
      <trkpt lat="44.19907" lon="0.84833">
        <ele>126.39</ele>
        <time>2017-08-14T09:48:38Z</time>
      </trkpt>
      <trkpt lat="44.19901" lon="0.84807">
        <ele>125.279</ele>
        <time>2017-08-14T09:48:43Z</time>
      </trkpt>
      <trkpt lat="44.19898" lon="0.84803">
        <ele>124.969</ele>
        <time>2017-08-14T09:48:44Z</time>
      </trkpt>
      <trkpt lat="44.19884" lon="0.84774">
        <ele>121.427</ele>
        <time>2017-08-14T09:48:50Z</time>
      </trkpt>
      <trkpt lat="44.19886" lon="0.84757">
        <ele>119.945</ele>
        <time>2017-08-14T09:48:52Z</time>
      </trkpt>
      <trkpt lat="44.19889" lon="0.84736">
        <ele>118.595</ele>
        <time>2017-08-14T09:48:54Z</time>
      </trkpt>
      <trkpt lat="44.19886" lon="0.84704">
        <ele>117.228</ele>
        <time>2017-08-14T09:48:58Z</time>
      </trkpt>
      <trkpt lat="44.19873" lon="0.84692">
        <ele>115.777</ele>
        <time>2017-08-14T09:49:01Z</time>
      </trkpt>
      <trkpt lat="44.19868" lon="0.8469">
        <ele>115.066</ele>
        <time>2017-08-14T09:49:02Z</time>
      </trkpt>
      <trkpt lat="44.19834" lon="0.84678">
        <ele>109.713</ele>
        <time>2017-08-14T09:49:08Z</time>
      </trkpt>
      <trkpt lat="44.19798" lon="0.84664">
        <ele>103.19</ele>
        <time>2017-08-14T09:49:12Z</time>
      </trkpt>
      <trkpt lat="44.19756" lon="0.84648">
        <ele>95.329</ele>
        <time>2017-08-14T09:49:16Z</time>
      </trkpt>
      <trkpt lat="44.19702" lon="0.84628">
        <ele>85.292</ele>
        <time>2017-08-14T09:49:22Z</time>
      </trkpt>
      <trkpt lat="44.19669" lon="0.84615">
        <ele>80.074</ele>
        <time>2017-08-14T09:49:27Z</time>
      </trkpt>
      <trkpt lat="44.19656" lon="0.84608">
        <ele>78.017</ele>
        <time>2017-08-14T09:49:31Z</time>
      </trkpt>
      <trkpt lat="44.19654" lon="0.84579">
        <ele>77.38</ele>
        <time>2017-08-14T09:49:37Z</time>
      </trkpt>
      <trkpt lat="44.19654" lon="0.84574">
        <ele>77.25</ele>
        <time>2017-08-14T09:49:38Z</time>
      </trkpt>
      <trkpt lat="44.19656" lon="0.84536">
        <ele>75.99</ele>
        <time>2017-08-14T09:49:44Z</time>
      </trkpt>
      <trkpt lat="44.19656" lon="0.84478">
        <ele>74.35</ele>
        <time>2017-08-14T09:49:51Z</time>
      </trkpt>
      <trkpt lat="44.19658" lon="0.84395">
        <ele>72.869</ele>
        <time>2017-08-14T09:50:00Z</time>
      </trkpt>
      <trkpt lat="44.19658" lon="0.84334">
        <ele>72.789</ele>
        <time>2017-08-14T09:50:06Z</time>
      </trkpt>
      <trkpt lat="44.19658" lon="0.84271">
        <ele>72.309</ele>
        <time>2017-08-14T09:50:12Z</time>
      </trkpt>
      <trkpt lat="44.19658" lon="0.84195">
        <ele>72.179</ele>
        <time>2017-08-14T09:50:20Z</time>
      </trkpt>
      <trkpt lat="44.19659" lon="0.84164">
        <ele>72.339</ele>
        <time>2017-08-14T09:50:24Z</time>
      </trkpt>
      <trkpt lat="44.1967" lon="0.8416">
        <ele>72.74</ele>
        <time>2017-08-14T09:50:28Z</time>
      </trkpt>
      <trkpt lat="44.19693" lon="0.8417">
        <ele>74.73</ele>
        <time>2017-08-14T09:50:36Z</time>
      </trkpt>
      <trkpt lat="44.19705" lon="0.84174">
        <ele>74.72</ele>
        <time>2017-08-14T09:50:41Z</time>
      </trkpt>
      <trkpt lat="44.19716" lon="0.84178">
        <ele>77.731</ele>
        <time>2017-08-14T09:50:46Z</time>
      </trkpt>
      <trkpt lat="44.19733" lon="0.84183">
        <ele>80.581</ele>
        <time>2017-08-14T09:50:54Z</time>
      </trkpt>
      <trkpt lat="44.19742" lon="0.84181">
        <ele>80.54</ele>
        <time>2017-08-14T09:51:00Z</time>
      </trkpt>
      <trkpt lat="44.19758" lon="0.84181">
        <ele>80.279</ele>
        <time>2017-08-14T09:51:09Z</time>
      </trkpt>
      <trkpt lat="44.19777" lon="0.84184">
        <ele>80.47</ele>
        <time>2017-08-14T09:51:20Z</time>
      </trkpt>
      <trkpt lat="44.19789" lon="0.84187">
        <ele>81.519</ele>
        <time>2017-08-14T09:51:28Z</time>
      </trkpt>
      <trkpt lat="44.19802" lon="0.8419">
        <ele>82.25</ele>
        <time>2017-08-14T09:51:37Z</time>
      </trkpt>
      <trkpt lat="44.19815" lon="0.84192">
        <ele>84.4</ele>
        <time>2017-08-14T09:51:46Z</time>
      </trkpt>
      <trkpt lat="44.19828" lon="0.84195">
        <ele>86.391</ele>
        <time>2017-08-14T09:51:55Z</time>
      </trkpt>
      <trkpt lat="44.19845" lon="0.84198">
        <ele>88.03</ele>
        <time>2017-08-14T09:52:06Z</time>
      </trkpt>
      <trkpt lat="44.19858" lon="0.842">
        <ele>89.57</ele>
        <time>2017-08-14T09:52:15Z</time>
      </trkpt>
      <trkpt lat="44.19872" lon="0.84203">
        <ele>91.15</ele>
        <time>2017-08-14T09:52:24Z</time>
      </trkpt>
      <trkpt lat="44.19888" lon="0.84208">
        <ele>92.88</ele>
        <time>2017-08-14T09:52:35Z</time>
      </trkpt>
      <trkpt lat="44.199" lon="0.84212">
        <ele>94.02</ele>
        <time>2017-08-14T09:52:43Z</time>
      </trkpt>
      <trkpt lat="44.19914" lon="0.84218">
        <ele>95.27</ele>
        <time>2017-08-14T09:52:53Z</time>
      </trkpt>
      <trkpt lat="44.19929" lon="0.84222">
        <ele>96.561</ele>
        <time>2017-08-14T09:53:04Z</time>
      </trkpt>
      <trkpt lat="44.19939" lon="0.84225">
        <ele>97.581</ele>
        <time>2017-08-14T09:53:12Z</time>
      </trkpt>
      <trkpt lat="44.19941" lon="0.84226">
        <ele>97.681</ele>
        <time>2017-08-14T09:53:13Z</time>
      </trkpt>
      <trkpt lat="44.19951" lon="0.84231">
        <ele>98.671</ele>
        <time>2017-08-14T09:53:22Z</time>
      </trkpt>
      <trkpt lat="44.19954" lon="0.84232">
        <ele>98.88</ele>
        <time>2017-08-14T09:53:28Z</time>
      </trkpt>
      <trkpt lat="44.19951" lon="0.84232">
        <ele>96.73</ele>
        <time>2017-08-14T09:56:26Z</time>
      </trkpt>
      <trkpt lat="44.19961" lon="0.84233">
        <ele>97.431</ele>
        <time>2017-08-14T09:56:34Z</time>
      </trkpt>
      <trkpt lat="44.19977" lon="0.84235">
        <ele>98.511</ele>
        <time>2017-08-14T09:56:44Z</time>
      </trkpt>
      <trkpt lat="44.19987" lon="0.84235">
        <ele>99.271</ele>
        <time>2017-08-14T09:56:51Z</time>
      </trkpt>
      <trkpt lat="44.2" lon="0.84236">
        <ele>100.311</ele>
        <time>2017-08-14T09:56:59Z</time>
      </trkpt>
      <trkpt lat="44.20012" lon="0.84236">
        <ele>101.371</ele>
        <time>2017-08-14T09:57:07Z</time>
      </trkpt>
      <trkpt lat="44.20028" lon="0.84239">
        <ele>102.641</ele>
        <time>2017-08-14T09:57:17Z</time>
      </trkpt>
      <trkpt lat="44.20044" lon="0.84242">
        <ele>104.041</ele>
        <time>2017-08-14T09:57:27Z</time>
      </trkpt>
      <trkpt lat="44.2006" lon="0.84247">
        <ele>105.511</ele>
        <time>2017-08-14T09:57:37Z</time>
      </trkpt>
      <trkpt lat="44.20071" lon="0.8425">
        <ele>106.691</ele>
        <time>2017-08-14T09:57:45Z</time>
      </trkpt>
      <trkpt lat="44.20083" lon="0.84253">
        <ele>107.811</ele>
        <time>2017-08-14T09:57:53Z</time>
      </trkpt>
      <trkpt lat="44.20099" lon="0.84256">
        <ele>109.222</ele>
        <time>2017-08-14T09:58:03Z</time>
      </trkpt>
      <trkpt lat="44.20115" lon="0.84254">
        <ele>110.342</ele>
        <time>2017-08-14T09:58:13Z</time>
      </trkpt>
      <trkpt lat="44.20129" lon="0.84246">
        <ele>111.311</ele>
        <time>2017-08-14T09:58:23Z</time>
      </trkpt>
      <trkpt lat="44.20138" lon="0.84237">
        <ele>111.932</ele>
        <time>2017-08-14T09:58:31Z</time>
      </trkpt>
      <trkpt lat="44.20148" lon="0.84222">
        <ele>112.632</ele>
        <time>2017-08-14T09:58:40Z</time>
      </trkpt>
      <trkpt lat="44.20155" lon="0.84206">
        <ele>113.441</ele>
        <time>2017-08-14T09:58:49Z</time>
      </trkpt>
      <trkpt lat="44.20161" lon="0.84189">
        <ele>114.401</ele>
        <time>2017-08-14T09:58:58Z</time>
      </trkpt>
      <trkpt lat="44.20169" lon="0.84167">
        <ele>115.051</ele>
        <time>2017-08-14T09:59:10Z</time>
      </trkpt>
      <trkpt lat="44.20177" lon="0.84147">
        <ele>116.011</ele>
        <time>2017-08-14T09:59:21Z</time>
      </trkpt>
      <trkpt lat="44.20185" lon="0.84133">
        <ele>117.212</ele>
        <time>2017-08-14T09:59:30Z</time>
      </trkpt>
      <trkpt lat="44.20195" lon="0.84118">
        <ele>118.936</ele>
        <time>2017-08-14T09:59:40Z</time>
      </trkpt>
      <trkpt lat="44.20205" lon="0.84106">
        <ele>120.192</ele>
        <time>2017-08-14T09:59:49Z</time>
      </trkpt>
      <trkpt lat="44.20217" lon="0.84096">
        <ele>121.482</ele>
        <time>2017-08-14T09:59:58Z</time>
      </trkpt>
      <trkpt lat="44.2023" lon="0.84088">
        <ele>122.632</ele>
        <time>2017-08-14T10:00:06Z</time>
      </trkpt>
      <trkpt lat="44.20243" lon="0.84081">
        <ele>123.902</ele>
        <time>2017-08-14T10:00:14Z</time>
      </trkpt>
      <trkpt lat="44.20253" lon="0.84077">
        <ele>124.542</ele>
        <time>2017-08-14T10:00:21Z</time>
      </trkpt>
      <trkpt lat="44.20267" lon="0.84069">
        <ele>126.092</ele>
        <time>2017-08-14T10:00:31Z</time>
      </trkpt>
      <trkpt lat="44.20279" lon="0.84064">
        <ele>127.192</ele>
        <time>2017-08-14T10:00:39Z</time>
      </trkpt>
      <trkpt lat="44.20298" lon="0.84055">
        <ele>128.802</ele>
        <time>2017-08-14T10:00:51Z</time>
      </trkpt>
      <trkpt lat="44.20312" lon="0.84047">
        <ele>129.892</ele>
        <time>2017-08-14T10:01:01Z</time>
      </trkpt>
      <trkpt lat="44.20327" lon="0.84037">
        <ele>131.102</ele>
        <time>2017-08-14T10:01:11Z</time>
      </trkpt>
      <trkpt lat="44.20342" lon="0.84024">
        <ele>132.362</ele>
        <time>2017-08-14T10:01:22Z</time>
      </trkpt>
      <trkpt lat="44.20354" lon="0.84011">
        <ele>132.802</ele>
        <time>2017-08-14T10:01:32Z</time>
      </trkpt>
      <trkpt lat="44.20369" lon="0.83996">
        <ele>134.122</ele>
        <time>2017-08-14T10:01:43Z</time>
      </trkpt>
      <trkpt lat="44.20384" lon="0.8398">
        <ele>135.642</ele>
        <time>2017-08-14T10:01:55Z</time>
      </trkpt>
      <trkpt lat="44.20397" lon="0.83969">
        <ele>136.482</ele>
        <time>2017-08-14T10:02:04Z</time>
      </trkpt>
      <trkpt lat="44.20411" lon="0.8396">
        <ele>137.402</ele>
        <time>2017-08-14T10:02:14Z</time>
      </trkpt>
      <trkpt lat="44.20425" lon="0.83954">
        <ele>138.753</ele>
        <time>2017-08-14T10:02:24Z</time>
      </trkpt>
      <trkpt lat="44.2044" lon="0.83951">
        <ele>140.573</ele>
        <time>2017-08-14T10:02:34Z</time>
      </trkpt>
      <trkpt lat="44.20455" lon="0.8395">
        <ele>142.313</ele>
        <time>2017-08-14T10:02:44Z</time>
      </trkpt>
      <trkpt lat="44.20469" lon="0.83949">
        <ele>144.053</ele>
        <time>2017-08-14T10:02:53Z</time>
      </trkpt>
      <trkpt lat="44.20481" lon="0.83948">
        <ele>145.652</ele>
        <time>2017-08-14T10:03:02Z</time>
      </trkpt>
      <trkpt lat="44.20491" lon="0.83947">
        <ele>146.513</ele>
        <time>2017-08-14T10:03:09Z</time>
      </trkpt>
      <trkpt lat="44.20494" lon="0.83947">
        <ele>147.123</ele>
        <time>2017-08-14T10:03:11Z</time>
      </trkpt>
      <trkpt lat="44.205" lon="0.83946">
        <ele>148.263</ele>
        <time>2017-08-14T10:03:15Z</time>
      </trkpt>
      <trkpt lat="44.20512" lon="0.83946">
        <ele>148.983</ele>
        <time>2017-08-14T10:03:23Z</time>
      </trkpt>
      <trkpt lat="44.20523" lon="0.83944">
        <ele>150.503</ele>
        <time>2017-08-14T10:03:30Z</time>
      </trkpt>
      <trkpt lat="44.20533" lon="0.83944">
        <ele>151.963</ele>
        <time>2017-08-14T10:03:37Z</time>
      </trkpt>
      <trkpt lat="44.20544" lon="0.83942">
        <ele>152.932</ele>
        <time>2017-08-14T10:03:44Z</time>
      </trkpt>
      <trkpt lat="44.20562" lon="0.83939">
        <ele>153.182</ele>
        <time>2017-08-14T10:03:55Z</time>
      </trkpt>
      <trkpt lat="44.20575" lon="0.83937">
        <ele>153.993</ele>
        <time>2017-08-14T10:04:03Z</time>
      </trkpt>
      <trkpt lat="44.20587" lon="0.83934">
        <ele>155.053</ele>
        <time>2017-08-14T10:04:11Z</time>
      </trkpt>
      <trkpt lat="44.20603" lon="0.83929">
        <ele>156.783</ele>
        <time>2017-08-14T10:04:21Z</time>
      </trkpt>
      <trkpt lat="44.2062" lon="0.83923">
        <ele>158.163</ele>
        <time>2017-08-14T10:04:32Z</time>
      </trkpt>
      <trkpt lat="44.20633" lon="0.83916">
        <ele>158.934</ele>
        <time>2017-08-14T10:04:40Z</time>
      </trkpt>
      <trkpt lat="44.20647" lon="0.83905">
        <ele>159.483</ele>
        <time>2017-08-14T10:04:50Z</time>
      </trkpt>
      <trkpt lat="44.20665" lon="0.83889">
        <ele>160.255</ele>
        <time>2017-08-14T10:05:03Z</time>
      </trkpt>
      <trkpt lat="44.20682" lon="0.83874">
        <ele>161.424</ele>
        <time>2017-08-14T10:05:15Z</time>
      </trkpt>
      <trkpt lat="44.20696" lon="0.83862">
        <ele>162.563</ele>
        <time>2017-08-14T10:05:24Z</time>
      </trkpt>
      <trkpt lat="44.2071" lon="0.83849">
        <ele>163.674</ele>
        <time>2017-08-14T10:05:34Z</time>
      </trkpt>
      <trkpt lat="44.20727" lon="0.83837">
        <ele>165.214</ele>
        <time>2017-08-14T10:05:45Z</time>
      </trkpt>
      <trkpt lat="44.20744" lon="0.83828">
        <ele>166.213</ele>
        <time>2017-08-14T10:05:56Z</time>
      </trkpt>
      <trkpt lat="44.20758" lon="0.83824">
        <ele>166.833</ele>
        <time>2017-08-14T10:06:04Z</time>
      </trkpt>
      <trkpt lat="44.20777" lon="0.83824">
        <ele>167.914</ele>
        <time>2017-08-14T10:06:14Z</time>
      </trkpt>
      <trkpt lat="44.20793" lon="0.83828">
        <ele>168.704</ele>
        <time>2017-08-14T10:06:22Z</time>
      </trkpt>
      <trkpt lat="44.20816" lon="0.83839">
        <ele>169.083</ele>
        <time>2017-08-14T10:06:32Z</time>
      </trkpt>
      <trkpt lat="44.2084" lon="0.83852">
        <ele>168.432</ele>
        <time>2017-08-14T10:06:40Z</time>
      </trkpt>
      <trkpt lat="44.20868" lon="0.83865">
        <ele>166.791</ele>
        <time>2017-08-14T10:06:46Z</time>
      </trkpt>
      <trkpt lat="44.20913" lon="0.83882">
        <ele>165.052</ele>
        <time>2017-08-14T10:06:53Z</time>
      </trkpt>
      <trkpt lat="44.20975" lon="0.83897">
        <ele>164.473</ele>
        <time>2017-08-14T10:07:02Z</time>
      </trkpt>
      <trkpt lat="44.21012" lon="0.83911">
        <ele>164.825</ele>
        <time>2017-08-14T10:07:08Z</time>
      </trkpt>
      <trkpt lat="44.21053" lon="0.83932">
        <ele>165.686</ele>
        <time>2017-08-14T10:07:16Z</time>
      </trkpt>
      <trkpt lat="44.21088" lon="0.83944">
        <ele>167.126</ele>
        <time>2017-08-14T10:07:24Z</time>
      </trkpt>
      <trkpt lat="44.21125" lon="0.83949">
        <ele>168.735</ele>
        <time>2017-08-14T10:07:34Z</time>
      </trkpt>
      <trkpt lat="44.21164" lon="0.83956">
        <ele>169.905</ele>
        <time>2017-08-14T10:07:46Z</time>
      </trkpt>
      <trkpt lat="44.21201" lon="0.83963">
        <ele>169.063</ele>
        <time>2017-08-14T10:07:56Z</time>
      </trkpt>
      <trkpt lat="44.21237" lon="0.83969">
        <ele>167.313</ele>
        <time>2017-08-14T10:08:03Z</time>
      </trkpt>
      <trkpt lat="44.21284" lon="0.83978">
        <ele>165.134</ele>
        <time>2017-08-14T10:08:10Z</time>
      </trkpt>
      <trkpt lat="44.21323" lon="0.8399">
        <ele>163.554</ele>
        <time>2017-08-14T10:08:16Z</time>
      </trkpt>
      <trkpt lat="44.21364" lon="0.84013">
        <ele>162.745</ele>
        <time>2017-08-14T10:08:22Z</time>
      </trkpt>
      <trkpt lat="44.21396" lon="0.84034">
        <ele>163.137</ele>
        <time>2017-08-14T10:08:28Z</time>
      </trkpt>
      <trkpt lat="44.21435" lon="0.84056">
        <ele>164.797</ele>
        <time>2017-08-14T10:08:37Z</time>
      </trkpt>
      <trkpt lat="44.2146" lon="0.84064">
        <ele>166.648</ele>
        <time>2017-08-14T10:08:44Z</time>
      </trkpt>
      <trkpt lat="44.21488" lon="0.84063">
        <ele>168.977</ele>
        <time>2017-08-14T10:08:54Z</time>
      </trkpt>
      <trkpt lat="44.21515" lon="0.84059">
        <ele>170.867</ele>
        <time>2017-08-14T10:09:04Z</time>
      </trkpt>
      <trkpt lat="44.21532" lon="0.84057">
        <ele>172.218</ele>
        <time>2017-08-14T10:09:12Z</time>
      </trkpt>
      <trkpt lat="44.21532" lon="0.84057">
        <ele>172.467</ele>
        <time>2017-08-14T10:09:17Z</time>
      </trkpt>
      <trkpt lat="44.21532" lon="0.84056">
        <ele>172.257</ele>
        <time>2017-08-14T10:10:12Z</time>
      </trkpt>
      <trkpt lat="44.21538" lon="0.84055">
        <ele>172.237</ele>
        <time>2017-08-14T10:10:16Z</time>
      </trkpt>
      <trkpt lat="44.21559" lon="0.84063">
        <ele>172.707</ele>
        <time>2017-08-14T10:10:23Z</time>
      </trkpt>
      <trkpt lat="44.21576" lon="0.84071">
        <ele>173.508</ele>
        <time>2017-08-14T10:10:30Z</time>
      </trkpt>
      <trkpt lat="44.21591" lon="0.84085">
        <ele>173.647</ele>
        <time>2017-08-14T10:10:36Z</time>
      </trkpt>
      <trkpt lat="44.21616" lon="0.84112">
        <ele>174.278</ele>
        <time>2017-08-14T10:10:47Z</time>
      </trkpt>
      <trkpt lat="44.21636" lon="0.84132">
        <ele>175.308</ele>
        <time>2017-08-14T10:10:56Z</time>
      </trkpt>
      <trkpt lat="44.21658" lon="0.84153">
        <ele>176.328</ele>
        <time>2017-08-14T10:11:07Z</time>
      </trkpt>
      <trkpt lat="44.21674" lon="0.84158">
        <ele>176.898</ele>
        <time>2017-08-14T10:11:14Z</time>
      </trkpt>
      <trkpt lat="44.21697" lon="0.8416">
        <ele>177.067</ele>
        <time>2017-08-14T10:11:23Z</time>
      </trkpt>
      <trkpt lat="44.21723" lon="0.8416">
        <ele>175.866</ele>
        <time>2017-08-14T10:11:31Z</time>
      </trkpt>
      <trkpt lat="44.2175" lon="0.84155">
        <ele>174.056</ele>
        <time>2017-08-14T10:11:37Z</time>
      </trkpt>
      <trkpt lat="44.21803" lon="0.84145">
        <ele>171.507</ele>
        <time>2017-08-14T10:11:47Z</time>
      </trkpt>
      <trkpt lat="44.21831" lon="0.84141">
        <ele>170.767</ele>
        <time>2017-08-14T10:11:53Z</time>
      </trkpt>
      <trkpt lat="44.21856" lon="0.84147">
        <ele>170.648</ele>
        <time>2017-08-14T10:12:00Z</time>
      </trkpt>
      <trkpt lat="44.2187" lon="0.84149">
        <ele>170.598</ele>
        <time>2017-08-14T10:12:06Z</time>
      </trkpt>
      <trkpt lat="44.2188" lon="0.84155">
        <ele>170.639</ele>
        <time>2017-08-14T10:12:11Z</time>
      </trkpt>
      <trkpt lat="44.21893" lon="0.8417">
        <ele>170.528</ele>
        <time>2017-08-14T10:12:19Z</time>
      </trkpt>
      <trkpt lat="44.21908" lon="0.84187">
        <ele>170.148</ele>
        <time>2017-08-14T10:12:27Z</time>
      </trkpt>
      <trkpt lat="44.21919" lon="0.84203">
        <ele>168.244</ele>
        <time>2017-08-14T10:12:31Z</time>
      </trkpt>
      <trkpt lat="44.21936" lon="0.84231">
        <ele>164.622</ele>
        <time>2017-08-14T10:12:35Z</time>
      </trkpt>
      <trkpt lat="44.2198" lon="0.84297">
        <ele>159.104</ele>
        <time>2017-08-14T10:12:43Z</time>
      </trkpt>
      <trkpt lat="44.22021" lon="0.84359">
        <ele>157.208</ele>
        <time>2017-08-14T10:12:51Z</time>
      </trkpt>
      <trkpt lat="44.22022" lon="0.84374">
        <ele>157.831</ele>
        <time>2017-08-14T10:12:55Z</time>
      </trkpt>
      <trkpt lat="44.22018" lon="0.84381">
        <ele>158.721</ele>
        <time>2017-08-14T10:12:58Z</time>
      </trkpt>
      <trkpt lat="44.22006" lon="0.84403">
        <ele>161.201</ele>
        <time>2017-08-14T10:13:05Z</time>
      </trkpt>
      <trkpt lat="44.21999" lon="0.84431">
        <ele>162.071</ele>
        <time>2017-08-14T10:13:12Z</time>
      </trkpt>
      <trkpt lat="44.21991" lon="0.84464">
        <ele>161.3</ele>
        <time>2017-08-14T10:13:20Z</time>
      </trkpt>
      <trkpt lat="44.21984" lon="0.84491">
        <ele>161.05</ele>
        <time>2017-08-14T10:13:27Z</time>
      </trkpt>
      <trkpt lat="44.2198" lon="0.84527">
        <ele>160.08</ele>
        <time>2017-08-14T10:13:36Z</time>
      </trkpt>
      <trkpt lat="44.21981" lon="0.84552">
        <ele>159.42</ele>
        <time>2017-08-14T10:13:43Z</time>
      </trkpt>
      <trkpt lat="44.21991" lon="0.84557">
        <ele>159.25</ele>
        <time>2017-08-14T10:13:48Z</time>
      </trkpt>
      <trkpt lat="44.22001" lon="0.84556">
        <ele>158.479</ele>
        <time>2017-08-14T10:13:53Z</time>
      </trkpt>
      <trkpt lat="44.22002" lon="0.84553">
        <ele>158.135</ele>
        <time>2017-08-14T10:13:56Z</time>
      </trkpt>
    </trkseg>
  </trk>
</gpx>